Airfield :
LOGIN :

Register | Disclaimer

   EN    FR    IT 

 










Legend :    VFR   Marginal VFR   IFR   Intensive IFR   Very Intensive IFR
Visi :
Ceiling :
>= 8 km
>= 3000ft
5 to 8 km
1000 to 3000 ft
1500m to 5 km
500 to 1000 ft
800 to 1500m
200 to 500 ft
< 800m
< 200 ft
Symbols :   Thunderstorms  Fog  Heavy snow  Heavy precipitations  Wind > 20 kt
SIGMETs :     Misc.  Thunderstorms  Icing  Turbulence  Mountain Waves  Volcanic Ashes






- Airport Elevation : 392 ft
- IATA code : CDG


LFPG - Paris-Aeroport Charles De Gaulle

CURRENT METAR :
  • 171800Z 28013KT 9999 SCT025 SCT060 07/02 Q1022 NOSIG

EXPIRED METARs :
  • 171730Z 27014KT 9999 SCT035 SCT060 08/03 Q1022 NOSIG
  • 171700Z 26009KT 9999 FEW033 08/03 Q1021 NOSIG
  • 171630Z 26011KT 9999 FEW033 08/03 Q1020 NOSIG
  • 171600Z 27013KT 9999 FEW033 09/02 Q1020 TEMPO 25015G25KT
  • 171530Z 26013KT 9999 SCT033 FEW036TCU 09/02 Q1019 TEMPO 25015G25KT

TAF TAF LFPG
Valid from the 17 at 18:00 until the 19 at 00:00 UTC


171700Z 1718/1824 28012KT 9999 SCT030 TX08/1812Z TN01/1824Z
PROB30
TEMPO 1807/1812 BKN006
BECMG 1812/1814 35005KT
ATIS : +33 1 48 62 10 92



MET'MAP, your aeronautical weather chart ! - Copyright ORBIFLY December 2007 - Disclaimer

ORBIFLY MET'MAP TEAM :

Programming & Development : Alexandra Zaïnal
Concept & original design : Baudouin d'Aumeries
Assistance for programming : Marc-Olivier Méhu
Technical & hardware support : Manuel Goepfert

Contact : metmap@orbifly.com




SOURCES & CREDITS :

   NOAA